Time;durP1;ratioP1;P1;durP2;ratioP2;P2;SDS_P1;SDS_P2;PMS_P1;PMS_P2;Temp;Humidity;BMP_temperature;BMP_pressure;BME280_temperature;BME280_humidity;BME280_pressure;Samples;Min_cycle;Max_cycle;Signal;HPM_P1;HPM_P2
2022/09/01 00:01:34;;;;;;;;;;;16.90;99.90;;;;;;5043755;28;19964;-70
2022/09/01 00:04:02;;;;;;;;;;;16.90;99.90;;;;;;5042806;28;19922;-69
2022/09/01 00:06:30;;;;;;;;;;;16.90;99.90;;;;;;5043829;28;19921;-69
2022/09/01 00:08:59;;;;;;;;;;;16.90;99.90;;;;;;5043308;28;20101;-70
2022/09/01 00:11:28;;;;;;;;;;;16.90;99.90;;;;;;5043583;28;19959;-69
2022/09/01 00:13:56;;;;;;;;;;;16.90;99.90;;;;;;5043159;28;20179;-69
2022/09/01 00:16:23;;;;;;;;;;;16.90;99.90;;;;;;5043316;28;19921;-69
2022/09/01 00:18:50;;;;;;;;;;;16.90;99.90;;;;;;5042933;28;19928;-69
2022/09/01 00:21:17;;;;;;;;;;;16.90;99.90;;;;;;5042936;28;19980;-69
2022/09/01 00:23:44;;;;;;;;;;;17.00;99.90;;;;;;5042792;28;20264;-69
2022/09/01 00:26:10;;;;;;;;;;;16.90;99.90;;;;;;5043268;28;19988;-69
2022/09/01 00:28:38;;;;;;;;;;;17.00;99.90;;;;;;5043280;28;20241;-69
2022/09/01 00:31:06;;;;;;;;;;;17.00;99.90;;;;;;5042993;28;19956;-70
2022/09/01 00:33:33;;;;;;;;;;;17.00;99.90;;;;;;5042851;28;19944;-70
2022/09/01 00:36:00;;;;;;;;;;;17.00;99.90;;;;;;5042704;28;19956;-69
2022/09/01 00:38:26;;;;;;;;;;;17.00;99.90;;;;;;5042995;28;20242;-70
2022/09/01 00:40:53;;;;;;;;;;;17.00;99.90;;;;;;5043258;28;19932;-69
2022/09/01 00:43:21;;;;;;;;;;;17.00;99.90;;;;;;5042491;28;19957;-69
2022/09/01 00:45:50;;;;;;;;;;;17.10;99.90;;;;;;5042761;28;20200;-69
2022/09/01 00:48:19;;;;;;;;;;;17.00;99.90;;;;;;5043028;28;19921;-70
2022/09/01 00:50:46;;;;;;;;;;;17.00;99.90;;;;;;5041027;28;19921;-70
2022/09/01 00:53:12;;;;;;;;;;;17.00;99.90;;;;;;5045349;28;20175;-69
2022/09/01 00:55:39;;;;;;;;;;;16.90;99.90;;;;;;5046691;28;19963;-69
2022/09/01 00:58:07;;;;;;;;;;;16.90;99.90;;;;;;5045810;28;19963;-69
2022/09/01 01:00:39;;;;;;;;;;;16.80;99.90;;;;;;5046769;28;19921;-70
2022/09/01 01:03:08;;;;;;;;;;;16.70;99.90;;;;;;5046451;28;19921;-70
2022/09/01 01:05:38;;;;;;;;;;;16.70;99.90;;;;;;5046067;28;19948;-70
2022/09/01 01:08:07;;;;;;;;;;;16.70;99.90;;;;;;5046712;28;19922;-69
2022/09/01 01:10:36;;;;;;;;;;;16.70;99.90;;;;;;5046903;28;19928;-69
2022/09/01 01:13:07;;;;;;;;;;;16.70;99.90;;;;;;5046439;28;20254;-70
2022/09/01 01:15:35;;;;;;;;;;;16.70;99.90;;;;;;5046187;28;19927;-69
2022/09/01 01:18:02;;;;;;;;;;;16.70;99.90;;;;;;5046534;28;19992;-70
2022/09/01 01:23:21;;;;;;;;;;;16.60;99.90;;;;;;5045940;28;19935;-70
2022/09/01 01:25:52;;;;;;;;;;;16.60;99.90;;;;;;5046207;28;19969;-69
2022/09/01 01:28:20;;;;;;;;;;;16.60;99.90;;;;;;5046291;28;19956;-69
2022/09/01 01:30:49;;;;;;;;;;;16.60;99.90;;;;;;5046112;28;20208;-69
2022/09/01 01:33:16;;;;;;;;;;;16.60;99.90;;;;;;5046207;28;19928;-69
2022/09/01 01:35:43;;;;;;;;;;;16.60;99.90;;;;;;5046062;28;19928;-69
2022/09/01 01:38:10;;;;;;;;;;;16.60;99.90;;;;;;5046373;28;19921;-69
2022/09/01 01:40:37;;;;;;;;;;;16.60;99.90;;;;;;5046147;28;19963;-70
2022/09/01 01:43:06;;;;;;;;;;;16.60;99.90;;;;;;5045566;28;19988;-69
2022/09/01 01:45:32;;;;;;;;;;;16.60;99.90;;;;;;5045887;28;20252;-69
2022/09/01 01:48:07;;;;;;;;;;;16.50;99.90;;;;;;5046201;28;19928;-70
2022/09/01 01:50:36;;;;;;;;;;;16.50;99.90;;;;;;5045551;28;19929;-69
2022/09/01 01:53:04;;;;;;;;;;;16.50;99.90;;;;;;5045519;28;19928;-69
2022/09/01 01:55:31;;;;;;;;;;;16.40;99.90;;;;;;5045633;28;19986;-69
2022/09/01 01:57:58;;;;;;;;;;;16.40;99.90;;;;;;5045627;28;19952;-69
2022/09/01 02:00:27;;;;;;;;;;;16.40;99.90;;;;;;5045959;28;19984;-69
2022/09/01 02:02:54;;;;;;;;;;;16.40;99.90;;;;;;5044894;28;19921;-69
2022/09/01 02:05:23;;;;;;;;;;;16.40;99.90;;;;;;5044050;28;19921;-69
2022/09/01 02:07:54;;;;;;;;;;;16.40;99.90;;;;;;5044918;28;19928;-69
2022/09/01 02:10:22;;;;;;;;;;;16.40;99.90;;;;;;5045727;28;19927;-69
2022/09/01 02:12:49;;;;;;;;;;;16.40;99.90;;;;;;5045444;28;19953;-70
2022/09/01 02:15:16;;;;;;;;;;;16.30;99.90;;;;;;5045527;28;20008;-69
2022/09/01 02:17:44;;;;;;;;;;;16.30;99.90;;;;;;5045579;28;19928;-69
2022/09/01 02:20:14;;;;;;;;;;;16.30;99.90;;;;;;5045802;28;19959;-69
2022/09/01 02:22:42;;;;;;;;;;;16.30;99.90;;;;;;5045270;28;19921;-69
2022/09/01 02:25:09;;;;;;;;;;;16.30;99.90;;;;;;5045345;28;19921;-69
2022/09/01 02:27:38;;;;;;;;;;;16.30;99.90;;;;;;5045484;28;19959;-70
2022/09/01 02:30:05;;;;;;;;;;;16.20;99.90;;;;;;5045368;28;19927;-69
2022/09/01 02:32:32;;;;;;;;;;;16.20;99.90;;;;;;5044992;28;20094;-69
2022/09/01 02:35:00;;;;;;;;;;;16.20;99.90;;;;;;5044890;28;19936;-69
2022/09/01 02:37:27;;;;;;;;;;;16.10;99.90;;;;;;5045119;28;20116;-69
2022/09/01 02:39:56;;;;;;;;;;;16.10;99.90;;;;;;5044768;28;19964;-69
2022/09/01 02:42:26;;;;;;;;;;;16.10;99.90;;;;;;5044943;28;19922;-69
2022/09/01 02:44:53;;;;;;;;;;;16.10;99.90;;;;;;5059047;22;20228;-69
2022/09/01 02:47:22;;;;;;;;;;;16.00;99.90;;;;;;5044820;28;19921;-68
2022/09/01 02:49:49;;;;;;;;;;;16.00;99.90;;;;;;5045241;28;19992;-68
2022/09/01 02:52:19;;;;;;;;;;;15.90;99.90;;;;;;5044880;28;20151;-68
2022/09/01 02:54:47;;;;;;;;;;;15.90;99.90;;;;;;5044615;28;19921;-68
2022/09/01 02:57:14;;;;;;;;;;;15.90;99.90;;;;;;5044881;28;19921;-69
2022/09/01 02:59:41;;;;;;;;;;;15.90;99.90;;;;;;5044659;28;19921;-69
2022/09/01 03:02:08;;;;;;;;;;;15.80;99.90;;;;;;5044793;28;19929;-68
2022/09/01 03:04:35;;;;;;;;;;;15.80;99.90;;;;;;5044353;28;19988;-69
2022/09/01 03:07:02;;;;;;;;;;;15.80;99.90;;;;;;5044213;28;20047;-68
2022/09/01 03:09:31;;;;;;;;;;;15.80;99.90;;;;;;5045050;28;19988;-68
2022/09/01 03:11:58;;;;;;;;;;;15.80;99.90;;;;;;5044419;28;19988;-68
2022/09/01 03:14:25;;;;;;;;;;;15.80;99.90;;;;;;5043564;28;19921;-68
2022/09/01 03:16:52;;;;;;;;;;;15.80;99.90;;;;;;5044365;28;19992;-68
2022/09/01 03:19:19;;;;;;;;;;;15.70;99.90;;;;;;5044023;28;20113;-68
2022/09/01 03:21:47;;;;;;;;;;;15.70;99.90;;;;;;5044182;28;19984;-68
2022/09/01 03:24:15;;;;;;;;;;;15.80;99.90;;;;;;5043863;28;19921;-68
2022/09/01 03:26:44;;;;;;;;;;;15.70;99.90;;;;;;5044123;28;20165;-68
2022/09/01 03:29:11;;;;;;;;;;;15.70;99.90;;;;;;5044011;28;19929;-68
2022/09/01 03:31:37;;;;;;;;;;;15.70;99.90;;;;;;5043890;28;20284;-68
2022/09/01 03:34:04;;;;;;;;;;;15.70;99.90;;;;;;5043622;28;19964;-68
2022/09/01 03:36:32;;;;;;;;;;;15.70;99.90;;;;;;5044133;28;19989;-68
2022/09/01 03:38:58;;;;;;;;;;;15.70;99.90;;;;;;5044016;28;20155;-68
2022/09/01 03:41:27;;;;;;;;;;;15.70;99.90;;;;;;5043691;28;19988;-68
2022/09/01 03:43:56;;;;;;;;;;;15.70;99.90;;;;;;5043559;28;19921;-68
2022/09/01 03:46:25;;;;;;;;;;;15.70;99.90;;;;;;5043674;28;20116;-68
2022/09/01 03:48:53;;;;;;;;;;;15.70;99.90;;;;;;5043659;28;19921;-68
2022/09/01 03:51:21;;;;;;;;;;;15.60;99.90;;;;;;5043721;28;19921;-68
2022/09/01 03:53:48;;;;;;;;;;;15.60;99.90;;;;;;5043289;28;20200;-68
2022/09/01 03:56:15;;;;;;;;;;;15.60;99.90;;;;;;5043490;28;19924;-68
2022/09/01 03:58:45;;;;;;;;;;;15.60;99.90;;;;;;5043406;28;19956;-69
2022/09/01 04:01:14;;;;;;;;;;;15.60;99.90;;;;;;5043908;28;20111;-68
2022/09/01 04:03:44;;;;;;;;;;;15.60;99.90;;;;;;5042777;28;19944;-68
2022/09/01 04:06:11;;;;;;;;;;;15.50;99.90;;;;;;5042961;28;19925;-68
2022/09/01 04:08:38;;;;;;;;;;;15.50;99.90;;;;;;5023588;28;19928;-68
2022/09/01 04:11:12;;;;;;;;;;;15.50;99.90;;;;;;5028989;28;20171;-69
2022/09/01 04:13:40;;;;;;;;;;;15.50;99.90;;;;;;5043190;28;19921;-68
2022/09/01 04:16:09;;;;;;;;;;;15.40;99.90;;;;;;5043137;28;19921;-68
2022/09/01 04:18:38;;;;;;;;;;;15.40;99.90;;;;;;5043394;28;19921;-68
2022/09/01 04:21:06;;;;;;;;;;;15.30;99.90;;;;;;5042969;28;19924;-68
2022/09/01 04:23:35;;;;;;;;;;;15.30;99.90;;;;;;5042678;28;19921;-68
2022/09/01 04:26:07;;;;;;;;;;;15.30;99.90;;;;;;5042759;28;20152;-69
2022/09/01 04:28:36;;;;;;;;;;;15.30;99.90;;;;;;5042552;28;20166;-68
2022/09/01 04:31:04;;;;;;;;;;;15.30;99.90;;;;;;5043037;28;20074;-68
2022/09/01 04:33:36;;;;;;;;;;;15.20;99.90;;;;;;5042450;28;19928;-69
2022/09/01 04:36:05;;;;;;;;;;;15.20;99.90;;;;;;5042730;28;20196;-69
2022/09/01 04:38:34;;;;;;;;;;;15.20;99.90;;;;;;5043422;28;19988;-68
2022/09/01 04:41:03;;;;;;;;;;;15.20;99.90;;;;;;5042879;28;20238;-68
2022/09/01 04:43:29;;;;;;;;;;;15.20;99.90;;;;;;5042610;28;19921;-68
2022/09/01 04:45:57;;;;;;;;;;;15.20;99.90;;;;;;5034995;28;19922;-69
2022/09/01 04:48:24;;;;;;;;;;;15.20;99.90;;;;;;5023333;28;19929;-68
2022/09/01 04:50:51;;;;;;;;;;;15.10;99.90;;;;;;5034471;28;20190;-68
2022/09/01 04:53:19;;;;;;;;;;;15.10;99.90;;;;;;5042614;28;19928;-68
2022/09/01 04:55:46;;;;;;;;;;;15.10;99.90;;;;;;5042884;28;19993;-69
2022/09/01 04:58:16;;;;;;;;;;;15.10;99.90;;;;;;5042841;28;20296;-68
2022/09/01 05:00:43;;;;;;;;;;;15.10;99.90;;;;;;5043018;28;19983;-68
2022/09/01 05:03:10;;;;;;;;;;;15.10;99.90;;;;;;5042572;28;19928;-67
2022/09/01 05:05:41;;;;;;;;;;;15.00;99.90;;;;;;5042831;28;19984;-68
2022/09/01 05:08:09;;;;;;;;;;;15.10;99.90;;;;;;5043168;28;19959;-69
2022/09/01 05:10:40;;;;;;;;;;;15.10;99.90;;;;;;5042894;28;19921;-68
2022/09/01 05:13:08;;;;;;;;;;;15.10;99.90;;;;;;5042558;28;19964;-67
2022/09/01 05:15:36;;;;;;;;;;;15.10;99.90;;;;;;5043014;28;20140;-68
2022/09/01 05:18:08;;;;;;;;;;;15.10;99.90;;;;;;5040240;28;20259;-68
2022/09/01 05:20:41;;;;;;;;;;;15.20;99.90;;;;;;5043204;28;19928;-68
2022/09/01 05:23:11;;;;;;;;;;;15.20;99.90;;;;;;5042407;28;19963;-66
2022/09/01 05:25:40;;;;;;;;;;;15.20;99.90;;;;;;5042823;28;19921;-66
2022/09/01 05:28:08;;;;;;;;;;;15.30;99.90;;;;;;5041535;28;19960;-66
2022/09/01 05:30:37;;;;;;;;;;;15.30;99.90;;;;;;5023321;28;19921;-66
2022/09/01 05:33:08;;;;;;;;;;;15.30;99.90;;;;;;5038900;28;20336;-68
2022/09/01 05:35:35;;;;;;;;;;;15.30;99.90;;;;;;5043014;28;19921;-67
2022/09/01 05:38:02;;;;;;;;;;;15.30;99.90;;;;;;5043949;28;19921;-68
2022/09/01 05:40:29;;;;;;;;;;;15.30;99.90;;;;;;5046673;28;19922;-70
2022/09/01 05:42:58;;;;;;;;;;;15.40;99.90;;;;;;5045631;28;19989;-67
2022/09/01 05:45:25;;;;;;;;;;;15.40;99.90;;;;;;5045204;28;19952;-67
2022/09/01 05:47:53;;;;;;;;;;;15.50;99.90;;;;;;5046417;28;19921;-66
2022/09/01 05:50:20;;;;;;;;;;;15.60;99.90;;;;;;5046586;28;19925;-67
2022/09/01 05:52:49;;;;;;;;;;;15.60;99.90;;;;;;5045606;28;19921;-67
2022/09/01 05:55:16;;;;;;;;;;;15.60;99.90;;;;;;5045629;28;19936;-67
2022/09/01 05:57:46;;;;;;;;;;;15.60;99.90;;;;;;5046195;28;19956;-67
2022/09/01 06:00:16;;;;;;;;;;;15.70;99.90;;;;;;5046248;28;19928;-67
2022/09/01 06:02:43;;;;;;;;;;;15.70;99.90;;;;;;5045410;28;19921;-67
2022/09/01 06:05:11;;;;;;;;;;;15.80;99.90;;;;;;5045425;28;19921;-67
2022/09/01 06:07:41;;;;;;;;;;;15.80;99.90;;;;;;5045810;28;19927;-67
2022/09/01 06:10:08;;;;;;;;;;;15.90;99.90;;;;;;5046009;28;19921;-67
2022/09/01 06:12:35;;;;;;;;;;;16.00;99.90;;;;;;5045429;28;20177;-67
2022/09/01 06:15:01;;;;;;;;;;;16.00;99.90;;;;;;5045056;28;20263;-67
2022/09/01 06:17:30;;;;;;;;;;;16.00;99.90;;;;;;5045580;28;19956;-66
2022/09/01 06:19:57;;;;;;;;;;;16.10;99.90;;;;;;5045624;28;20235;-67
2022/09/01 06:22:24;;;;;;;;;;;16.10;99.90;;;;;;5045771;28;20152;-67
2022/09/01 06:24:53;;;;;;;;;;;16.00;99.90;;;;;;5045129;28;19988;-67
2022/09/01 06:27:20;;;;;;;;;;;16.10;99.90;;;;;;5045709;28;20139;-67
2022/09/01 06:29:48;;;;;;;;;;;16.10;99.90;;;;;;5045723;28;19921;-67
2022/09/01 06:32:15;;;;;;;;;;;16.00;99.90;;;;;;5045525;28;19921;-67
2022/09/01 06:34:50;;;;;;;;;;;16.00;99.90;;;;;;5044937;28;19921;-67
2022/09/01 06:37:21;;;;;;;;;;;16.00;99.90;;;;;;5045541;28;20112;-67
2022/09/01 06:39:48;;;;;;;;;;;16.00;99.90;;;;;;5045565;28;19959;-67
2022/09/01 06:42:16;;;;;;;;;;;15.90;99.90;;;;;;5045497;28;19928;-67
2022/09/01 06:44:43;;;;;;;;;;;16.00;99.90;;;;;;5044004;28;19940;-67
2022/09/01 06:47:09;;;;;;;;;;;16.00;99.90;;;;;;5045266;28;19927;-66
2022/09/01 06:49:39;;;;;;;;;;;16.00;99.90;;;;;;5044278;28;19951;-66
2022/09/01 06:52:08;;;;;;;;;;;16.10;99.90;;;;;;5045274;28;19921;-67
2022/09/01 06:54:35;;;;;;;;;;;16.20;99.90;;;;;;5044433;28;19921;-67
2022/09/01 06:57:02;;;;;;;;;;;16.10;99.90;;;;;;5045076;28;19928;-66
2022/09/01 06:59:30;;;;;;;;;;;16.20;99.90;;;;;;5045200;28;19921;-67
2022/09/01 07:01:58;;;;;;;;;;;16.30;99.90;;;;;;5045017;28;19921;-66
2022/09/01 07:04:28;;;;;;;;;;;16.40;99.90;;;;;;5044292;28;19935;-67
2022/09/01 07:06:55;;;;;;;;;;;16.50;99.90;;;;;;5044628;28;20208;-67
2022/09/01 07:09:24;;;;;;;;;;;16.50;99.90;;;;;;5045109;28;19921;-67
2022/09/01 07:11:51;;;;;;;;;;;16.60;99.90;;;;;;5044979;28;20284;-67
2022/09/01 07:14:18;;;;;;;;;;;16.70;99.90;;;;;;5044133;28;19921;-66
2022/09/01 07:16:45;;;;;;;;;;;16.70;99.90;;;;;;5044742;28;19952;-67
2022/09/01 07:19:13;;;;;;;;;;;16.80;99.90;;;;;;5044558;28;19928;-66
2022/09/01 07:21:41;;;;;;;;;;;16.80;99.90;;;;;;5044718;28;19921;-66
2022/09/01 07:24:07;;;;;;;;;;;16.80;99.90;;;;;;5043547;28;19992;-67
2022/09/01 07:26:35;;;;;;;;;;;16.90;99.90;;;;;;5043896;28;19971;-66
2022/09/01 07:29:04;;;;;;;;;;;16.90;99.90;;;;;;5044560;28;19921;-67
2022/09/01 07:31:33;;;;;;;;;;;16.90;99.90;;;;;;5044181;28;19928;-67
2022/09/01 07:34:03;;;;;;;;;;;17.00;99.90;;;;;;5043959;28;19921;-67
2022/09/01 07:36:30;;;;;;;;;;;17.10;99.90;;;;;;5044296;28;20019;-67
2022/09/01 07:38:57;;;;;;;;;;;17.20;99.90;;;;;;5044129;28;20284;-66
2022/09/01 07:41:25;;;;;;;;;;;17.20;99.90;;;;;;5044281;28;20180;-67
2022/09/01 07:43:55;;;;;;;;;;;17.40;99.90;;;;;;5043397;28;19921;-66
2022/09/01 07:46:22;;;;;;;;;;;17.40;99.90;;;;;;5043683;28;19921;-67
2022/09/01 07:48:49;;;;;;;;;;;17.50;99.90;;;;;;5044334;28;19953;-67
2022/09/01 07:51:18;;;;;;;;;;;17.50;99.90;;;;;;5043823;28;19967;-67
2022/09/01 07:53:47;;;;;;;;;;;17.60;99.90;;;;;;5043308;28;19928;-67
2022/09/01 07:56:14;;;;;;;;;;;17.60;99.90;;;;;;5043638;28;19921;-66
2022/09/01 07:58:41;;;;;;;;;;;17.60;99.90;;;;;;5044187;28;20359;-67
2022/09/01 08:01:10;;;;;;;;;;;17.60;99.90;;;;;;5043011;28;19928;-67
2022/09/01 08:03:38;;;;;;;;;;;17.60;99.90;;;;;;5043005;28;20026;-67
2022/09/01 08:06:06;;;;;;;;;;;17.60;99.90;;;;;;5043577;28;20024;-65
2022/09/01 08:08:33;;;;;;;;;;;17.60;99.90;;;;;;5043379;28;20097;-67
2022/09/01 08:11:00;;;;;;;;;;;17.60;99.90;;;;;;5043913;28;20086;-66
2022/09/01 08:13:27;;;;;;;;;;;17.60;99.90;;;;;;5043180;28;19943;-67
2022/09/01 08:15:54;;;;;;;;;;;17.70;99.90;;;;;;5041766;28;19928;-67
2022/09/01 08:18:22;;;;;;;;;;;17.70;99.90;;;;;;5043314;28;20167;-67
2022/09/01 08:20:49;;;;;;;;;;;17.70;99.90;;;;;;5043307;28;19948;-67
2022/09/01 08:23:17;;;;;;;;;;;17.70;99.90;;;;;;5042787;28;20456;-67
2022/09/01 08:25:44;;;;;;;;;;;17.80;99.90;;;;;;5043666;28;19925;-67
2022/09/01 08:28:11;;;;;;;;;;;17.80;99.90;;;;;;5043486;28;19996;-67
2022/09/01 08:30:39;;;;;;;;;;;17.80;99.90;;;;;;5043339;28;20228;-67
2022/09/01 08:33:05;;;;;;;;;;;17.90;99.90;;;;;;5042782;28;19921;-67
2022/09/01 08:35:33;;;;;;;;;;;17.90;99.90;;;;;;5043083;28;19921;-67
2022/09/01 08:38:00;;;;;;;;;;;18.00;99.90;;;;;;5043397;28;19925;-67
2022/09/01 08:40:27;;;;;;;;;;;18.00;99.90;;;;;;5043050;28;19971;-67
2022/09/01 08:43:00;;;;;;;;;;;18.10;99.90;;;;;;5042137;28;20165;-67
2022/09/01 08:45:29;;;;;;;;;;;18.10;99.90;;;;;;5050764;22;20004;-67
2022/09/01 08:47:58;;;;;;;;;;;18.20;99.90;;;;;;5041400;28;19972;-67
2022/09/01 08:50:24;;;;;;;;;;;18.20;99.90;;;;;;5042935;28;20259;-67
2022/09/01 08:52:57;;;;;;;;;;;18.20;99.90;;;;;;5042557;28;19921;-67
2022/09/01 08:55:26;;;;;;;;;;;18.30;99.90;;;;;;5042687;28;19928;-67
2022/09/01 08:57:56;;;;;;;;;;;18.30;99.90;;;;;;5042793;28;19951;-66
2022/09/01 09:00:24;;;;;;;;;;;18.30;99.90;;;;;;5042729;28;19921;-67
2022/09/01 09:02:58;;;;;;;;;;;18.30;99.90;;;;;;5042043;28;20058;-67
2022/09/01 09:05:30;;;;;;;;;;;18.30;99.90;;;;;;5042251;28;19967;-67
2022/09/01 09:08:07;;;;;;;;;;;18.40;99.90;;;;;;5023055;28;19921;-67
2022/09/01 09:10:38;;;;;;;;;;;18.50;99.90;;;;;;5022990;28;20232;-67
2022/09/01 09:13:08;;;;;;;;;;;18.50;99.90;;;;;;5023582;28;20184;-67
2022/09/01 09:15:39;;;;;;;;;;;18.50;99.90;;;;;;5026745;28;19922;-67
2022/09/01 09:18:13;;;;;;;;;;;18.50;99.90;;;;;;5034654;28;19943;-67
2022/09/01 09:20:41;;;;;;;;;;;18.60;99.90;;;;;;5046880;28;19988;-67
2022/09/01 09:23:12;;;;;;;;;;;18.60;99.90;;;;;;5045585;28;19988;-67
2022/09/01 09:25:39;;;;;;;;;;;18.60;99.90;;;;;;5046718;28;19967;-67
2022/09/01 09:28:05;;;;;;;;;;;18.70;99.90;;;;;;5046585;28;19921;-67
2022/09/01 09:30:32;;;;;;;;;;;18.70;99.90;;;;;;5046612;28;19921;-68
2022/09/01 09:33:02;;;;;;;;;;;18.90;99.90;;;;;;5045788;28;20232;-67
2022/09/01 09:35:32;;;;;;;;;;;19.00;99.90;;;;;;5046108;28;19968;-67
2022/09/01 09:38:19;;;;;;;;;;;19.10;99.90;;;;;;5046392;28;20173;-67
2022/09/01 09:44:17;;;;;;;;;;;19.30;99.90;;;;;;5022154;28;19924;-67
2022/09/01 09:46:46;;;;;;;;;;;19.30;99.90;;;;;;4972147;28;19964;-67
2022/09/01 09:49:18;;;;;;;;;;;19.20;99.90;;;;;;5045995;28;20212;-67
2022/09/01 09:51:48;;;;;;;;;;;19.20;99.90;;;;;;5044789;28;19927;-67
2022/09/01 09:54:17;;;;;;;;;;;19.30;99.90;;;;;;5039455;28;20209;-67
2022/09/01 09:56:44;;;;;;;;;;;19.40;99.90;;;;;;5045469;28;19928;-67
2022/09/01 09:59:18;;;;;;;;;;;19.50;99.90;;;;;;5045683;28;19980;-67
2022/09/01 10:01:52;;;;;;;;;;;19.50;99.90;;;;;;5045725;28;19925;-67
2022/09/01 10:04:32;;;;;;;;;;;19.70;99.90;;;;;;5044200;28;19959;-67
2022/09/01 10:06:59;;;;;;;;;;;19.80;99.90;;;;;;5044627;28;19928;-67
2022/09/01 10:09:35;;;;;;;;;;;19.90;99.90;;;;;;5045886;28;19921;-67
2022/09/01 10:12:02;;;;;;;;;;;20.10;99.90;;;;;;5042859;28;19921;-66
2022/09/01 10:14:31;;;;;;;;;;;20.20;99.90;;;;;;5045113;28;19983;-67
2022/09/01 10:17:01;;;;;;;;;;;20.30;99.90;;;;;;5045323;28;19984;-67
2022/09/01 10:19:29;;;;;;;;;;;20.40;99.90;;;;;;5045560;28;19988;-67
2022/09/01 10:21:56;;;;;;;;;;;20.50;99.90;;;;;;5045375;28;19921;-67
2022/09/01 10:24:25;;;;;;;;;;;20.60;99.90;;;;;;5044164;28;19984;-67
2022/09/01 10:26:53;;;;;;;;;;;20.60;99.90;;;;;;5045214;28;19921;-67
2022/09/01 10:29:21;;;;;;;;;;;20.60;99.90;;;;;;5045349;28;19928;-67
2022/09/01 10:31:48;;;;;;;;;;;20.80;99.90;;;;;;5045297;28;19952;-67
2022/09/01 10:34:18;;;;;;;;;;;21.10;99.90;;;;;;5044655;28;20179;-67
2022/09/01 10:36:45;;;;;;;;;;;21.30;99.90;;;;;;5044934;28;19921;-67
2022/09/01 10:39:13;;;;;;;;;;;21.40;99.90;;;;;;5045340;28;19921;-67
2022/09/01 10:41:49;;;;;;;;;;;21.50;99.90;;;;;;5043989;28;19984;-67
2022/09/01 10:44:20;;;;;;;;;;;21.60;99.90;;;;;;5027051;28;20163;-67
2022/09/01 10:46:47;;;;;;;;;;;21.90;99.90;;;;;;5044793;28;19971;-67
2022/09/01 10:49:33;;;;;;;;;;;22.20;99.90;;;;;;5044810;28;19921;-67
2022/09/01 10:52:01;;;;;;;;;;;22.40;99.90;;;;;;5037932;28;20397;-68
2022/09/01 10:54:46;;;;;;;;;;;22.60;99.90;;;;;;5043315;28;19952;-67
2022/09/01 10:57:22;;;;;;;;;;;22.50;99.90;;;;;;5043742;28;20143;-67
2022/09/01 10:59:48;;;;;;;;;;;22.50;99.90;;;;;;5044573;28;20005;-68
2022/09/01 11:02:16;;;;;;;;;;;22.70;99.90;;;;;;5043369;28;19958;-68
2022/09/01 11:05:01;;;;;;;;;;;22.70;99.90;;;;;;5043273;28;19921;-67
2022/09/01 11:07:33;;;;;;;;;;;22.60;99.90;;;;;;5044295;28;19988;-67
2022/09/01 11:10:18;;;;;;;;;;;22.40;99.90;;;;;;5044692;28;19927;-67
2022/09/01 11:12:50;;;;;;;;;;;22.30;99.90;;;;;;5042499;28;19949;-67
2022/09/01 11:15:34;;;;;;;;;;;22.10;99.90;;;;;;5043708;28;19991;-67
2022/09/01 11:18:01;;;;;;;;;;;21.90;99.90;;;;;;5044033;28;19921;-68
2022/09/01 11:20:29;;;;;;;;;;;21.90;99.90;;;;;;5044340;28;19921;-68
2022/09/01 11:23:02;;;;;;;;;;;21.90;99.90;;;;;;5043070;28;19995;-68
2022/09/01 11:25:38;;;;;;;;;;;21.90;99.90;;;;;;5042522;28;19984;-67
2022/09/01 11:28:06;;;;;;;;;;;21.90;99.90;;;;;;5037131;28;19956;-66
2022/09/01 11:30:40;;;;;;;;;;;22.00;99.90;;;;;;5044215;28;19988;-67
2022/09/01 11:33:16;;;;;;;;;;;22.10;99.90;;;;;;5043375;28;19921;-66
2022/09/01 11:35:44;;;;;;;;;;;22.20;99.90;;;;;;5043971;28;19999;-66
2022/09/01 11:38:14;;;;;;;;;;;22.10;99.90;;;;;;5044393;28;19921;-66
2022/09/01 11:40:41;;;;;;;;;;;22.20;99.90;;;;;;5041650;28;19921;-67
2022/09/01 11:43:11;;;;;;;;;;;22.20;99.90;;;;;;5042287;28;20137;-67
2022/09/01 11:45:40;;;;;;;;;;;22.20;99.90;;;;;;5042473;28;19984;-67
2022/09/01 11:48:09;;;;;;;;;;;22.30;99.90;;;;;;5043970;28;20180;-67
2022/09/01 11:50:36;;;;;;;;;;;22.30;99.90;;;;;;5041287;28;19984;-67
2022/09/01 11:53:04;;;;;;;;;;;22.40;99.90;;;;;;5043223;28;19984;-67
2022/09/01 11:55:33;;;;;;;;;;;22.30;99.90;;;;;;5043573;28;19921;-66
2022/09/01 11:58:00;;;;;;;;;;;22.30;99.90;;;;;;5043489;28;19929;-66
2022/09/01 12:00:28;;;;;;;;;;;22.30;99.90;;;;;;5043398;28;19927;-66
2022/09/01 12:02:55;;;;;;;;;;;22.30;99.90;;;;;;5043389;28;19991;-66
2022/09/01 12:05:24;;;;;;;;;;;22.40;99.90;;;;;;5043548;28;19927;-66
2022/09/01 12:07:51;;;;;;;;;;;22.30;99.90;;;;;;5043502;28;19987;-67
2022/09/01 12:10:19;;;;;;;;;;;22.40;99.90;;;;;;5043753;28;19921;-67
2022/09/01 12:12:48;;;;;;;;;;;22.40;99.90;;;;;;5042633;28;19928;-67
2022/09/01 12:15:19;;;;;;;;;;;22.50;99.90;;;;;;5043420;28;19984;-67
2022/09/01 12:17:45;;;;;;;;;;;22.60;99.90;;;;;;5042122;28;19980;-66
2022/09/01 12:20:19;;;;;;;;;;;22.60;99.90;;;;;;5042273;28;19984;-66
2022/09/01 12:22:46;;;;;;;;;;;22.60;99.90;;;;;;5038096;28;19921;-67
2022/09/01 12:25:18;;;;;;;;;;;22.60;99.90;;;;;;5038031;28;19922;-67
2022/09/01 12:27:45;;;;;;;;;;;22.60;99.90;;;;;;5037844;28;19986;-67
2022/09/01 12:30:13;;;;;;;;;;;22.50;99.90;;;;;;5036476;28;19921;-67
2022/09/01 12:32:40;;;;;;;;;;;22.30;99.90;;;;;;5036549;28;19921;-66
2022/09/01 12:35:14;;;;;;;;;;;22.20;99.90;;;;;;5041972;28;20223;-66
2022/09/01 12:37:40;;;;;;;;;;;22.20;99.90;;;;;;5042872;28;19927;-67
2022/09/01 12:40:21;;;;;;;;;;;22.20;99.90;;;;;;5042519;28;19960;-67
2022/09/01 12:42:50;;;;;;;;;;;22.10;99.90;;;;;;5038307;28;19959;-66
2022/09/01 12:45:35;;;;;;;;;;;22.00;99.90;;;;;;5042315;28;19983;-66
2022/09/01 12:48:02;;;;;;;;;;;22.00;99.90;;;;;;5041518;28;19984;-67
2022/09/01 12:50:34;;;;;;;;;;;22.10;99.90;;;;;;5047210;28;19984;-67
2022/09/01 12:53:01;;;;;;;;;;;22.20;99.90;;;;;;5046105;28;19988;-67
2022/09/01 12:55:29;;;;;;;;;;;22.20;99.90;;;;;;5046888;28;19921;-67
2022/09/01 12:57:56;;;;;;;;;;;22.20;99.90;;;;;;5046618;28;19967;-67
2022/09/01 13:00:26;;;;;;;;;;;22.30;99.90;;;;;;5046917;28;19928;-67
2022/09/01 13:03:05;;;;;;;;;;;22.30;99.90;;;;;;5046267;28;20168;-67
2022/09/01 13:05:33;;;;;;;;;;;22.30;99.90;;;;;;5046907;28;19956;-67
2022/09/01 13:08:01;;;;;;;;;;;22.30;99.90;;;;;;5046275;28;19960;-66
2022/09/01 13:10:30;;;;;;;;;;;22.20;99.90;;;;;;5046785;28;19921;-67
2022/09/01 13:12:57;;;;;;;;;;;22.10;99.90;;;;;;5045264;28;20279;-67
2022/09/01 13:15:26;;;;;;;;;;;22.20;99.90;;;;;;5042124;28;20263;-67
2022/09/01 13:17:53;;;;;;;;;;;22.10;99.90;;;;;;5046455;28;20208;-67
2022/09/01 13:20:20;;;;;;;;;;;22.20;99.90;;;;;;5046679;28;20207;-67
2022/09/01 13:22:47;;;;;;;;;;;22.20;99.90;;;;;;5045830;28;20160;-67
2022/09/01 13:25:17;;;;;;;;;;;22.20;99.90;;;;;;5035988;28;19980;-67
2022/09/01 13:27:46;;;;;;;;;;;22.30;99.90;;;;;;5046129;28;20133;-68
2022/09/01 13:30:14;;;;;;;;;;;22.40;99.90;;;;;;5046106;28;19925;-67
2022/09/01 13:32:43;;;;;;;;;;;22.60;99.90;;;;;;5046229;28;19921;-67
2022/09/01 13:35:10;;;;;;;;;;;22.70;99.90;;;;;;5044982;28;19921;-67
2022/09/01 13:37:36;;;;;;;;;;;22.70;99.90;;;;;;5044917;28;19957;-67
2022/09/01 13:40:04;;;;;;;;;;;22.60;99.90;;;;;;5026535;28;19922;-67
2022/09/01 13:42:30;;;;;;;;;;;22.60;99.90;;;;;;5026461;28;19921;-67
2022/09/01 13:44:57;;;;;;;;;;;22.60;99.90;;;;;;5026129;28;19972;-67
2022/09/01 13:47:24;;;;;;;;;;;22.70;99.90;;;;;;5044223;28;19988;-67
2022/09/01 13:49:52;;;;;;;;;;;22.80;99.90;;;;;;5045826;28;19921;-67
2022/09/01 13:52:19;;;;;;;;;;;22.90;99.90;;;;;;5046119;28;19988;-67
2022/09/01 13:54:46;;;;;;;;;;;23.10;99.90;;;;;;5044947;28;19979;-67
2022/09/01 13:57:13;;;;;;;;;;;23.20;99.90;;;;;;5045474;28;20156;-67
2022/09/01 13:59:40;;;;;;;;;;;23.30;99.90;;;;;;5045770;28;19921;-67
2022/09/01 14:02:07;;;;;;;;;;;23.40;99.90;;;;;;5046178;28;20105;-67
2022/09/01 14:04:34;;;;;;;;;;;23.50;99.90;;;;;;5045218;28;19972;-67
2022/09/01 14:07:02;;;;;;;;;;;23.60;99.90;;;;;;5045912;28;19929;-67
2022/09/01 14:09:28;;;;;;;;;;;23.60;99.90;;;;;;5045751;28;20255;-67
2022/09/01 14:11:55;;;;;;;;;;;23.60;99.90;;;;;;5045978;28;19984;-68
2022/09/01 14:14:22;;;;;;;;;;;23.70;99.90;;;;;;5045102;28;19927;-67
2022/09/01 14:16:49;;;;;;;;;;;23.80;99.90;;;;;;5045657;28;20256;-66
2022/09/01 14:19:16;;;;;;;;;;;23.80;99.90;;;;;;5045668;28;20268;-66
2022/09/01 14:21:43;;;;;;;;;;;23.80;99.90;;;;;;5045771;28;19989;-67
2022/09/01 14:24:11;;;;;;;;;;;23.80;99.90;;;;;;5045107;28;19929;-67
2022/09/01 14:26:37;;;;;;;;;;;23.70;99.90;;;;;;5045529;28;19964;-67
2022/09/01 14:29:04;;;;;;;;;;;23.70;99.90;;;;;;5045689;28;19960;-67
2022/09/01 14:31:30;;;;;;;;;;;23.70;99.90;;;;;;5045482;28;20255;-67